»·PEaware :: N208GG KSNA-KSNA

N208GG :: KSNA-KSNA

FLIGHT INFORMATION

Flight Status: Arrived
Operator: Privately registered:
United States
More flights under this callsign
Pilot: Hunter M. (19355)
Aircraft: CESSNA 172 SKYHAWK
(C172)
More flights by this aircraft type
Origin: KSNA John Wayne-Orange Co
United States
Destination: KSNA John Wayne-Orange Co
United States
More flights between these airports :: More routes between these airports
Route: SLI
File this flight plan on PilotEdge
Remarks: practice approaches
Altitude:
(Current/Filed)
3,000ft
Speed:
(Current/Filed)
118kts
Departed: 09-Feb-20 10:34 AM
Arrived: 09-Feb-20 11:16 AM
Distance/Time
Traveled:
0nm/0:42
Distance/Time
To Go:
Arrived

Flight Plot

Page will automatically refresh every two minutes.


Map Options




Map Legend


Flown Route
Filed Route
Departure Airport
Arrival Airport
Navaid (VOR, NDB)
Fix

Horizontal Profiles

Position Reports

Time Latitude Longitude Heading Altitude Ground
Speed
09-Feb-20 10:20 33.667442 -117.870774 37 59ft 0kts
09-Feb-20 10:21 33.667442 -117.870774 37 59ft 0kts
09-Feb-20 10:22 33.667442 -117.870774 37 59ft 0kts
09-Feb-20 10:23 33.667442 -117.870774 37 59ft 0kts
09-Feb-20 10:24 33.667442 -117.870774 37 59ft 0kts
09-Feb-20 10:24 33.667442 -117.870774 37 59ft 0kts
09-Feb-20 10:25 33.667442 -117.870774 37 59ft 0kts
09-Feb-20 10:27 33.667442 -117.870774 37 59ft 0kts
09-Feb-20 10:27 33.667442 -117.870774 37 59ft 0kts
09-Feb-20 10:28 33.670069 -117.870006 38 59ft 24kts
09-Feb-20 10:30 33.673714 -117.867021 30 59ft 0kts
09-Feb-20 10:30 33.675981 -117.865873 21 59ft 30kts
09-Feb-20 10:31 33.679538 -117.863869 18 59ft 0kts
09-Feb-20 10:32 33.679543 -117.863867 18 59ft 0kts
09-Feb-20 10:33 33.674624 -117.867647 206 74ft 80kts
09-Feb-20 10:34 33.655083 -117.884464 221 872ft 91kts
09-Feb-20 10:35 33.635651 -117.905295 221 1593ft 94kts
09-Feb-20 10:36 33.616075 -117.926516 231 2284ft 94kts
09-Feb-20 10:37 33.633847 -117.932689 11 2971ft 93kts
09-Feb-20 10:38 33.663644 -117.925256 11 3008ft 118kts
09-Feb-20 10:39 33.695612 -117.917393 11 2979ft 109kts
09-Feb-20 10:40 33.723830 -117.910489 12 2997ft 101kts
09-Feb-20 10:41 33.751438 -117.903927 11 3004ft 102kts
09-Feb-20 10:42 33.779874 -117.897429 9 3007ft 105kts
09-Feb-20 10:43 33.808882 -117.892301 7 2999ft 105kts
09-Feb-20 10:44 33.837685 -117.885369 11 2997ft 105kts
09-Feb-20 10:45 33.863259 -117.872733 73 2993ft 103kts
09-Feb-20 10:46 33.866522 -117.837925 84 2983ft 105kts
09-Feb-20 10:47 33.869543 -117.803067 83 3002ft 104kts
09-Feb-20 10:48 33.873530 -117.768459 82 3025ft 104kts
09-Feb-20 10:49 33.877176 -117.733707 85 3043ft 104kts
09-Feb-20 10:50 33.880461 -117.698747 84 3042ft 105kts
09-Feb-20 10:51 33.896849 -117.677241 333 2991ft 104kts
09-Feb-20 10:52 33.890909 -117.703399 205 3018ft 103kts
09-Feb-20 10:53 33.865347 -117.720879 208 2993ft 105kts
09-Feb-20 10:54 33.842270 -117.742175 211 2981ft 105kts
09-Feb-20 10:55 33.817629 -117.761124 244 2923ft 110kts
09-Feb-20 10:56 33.826285 -117.793626 293 3002ft 104kts
09-Feb-20 10:57 33.837260 -117.825473 292 3068ft 103kts
09-Feb-20 10:58 33.848826 -117.857906 293 3031ft 106kts
09-Feb-20 10:59 33.860132 -117.890872 300 2997ft 107kts
09-Feb-20 11:00 33.886360 -117.889747 21 3012ft 102kts
09-Feb-20 11:01 33.905287 -117.867686 92 2990ft 104kts
09-Feb-20 11:02 33.903855 -117.833098 92 3038ft 104kts
09-Feb-20 11:03 33.901965 -117.798087 93 3042ft 105kts
09-Feb-20 11:04 33.887708 -117.772110 163 2985ft 105kts
09-Feb-20 11:05 33.858860 -117.765391 180 2962ft 104kts
09-Feb-20 11:06 33.831211 -117.770415 209 3040ft 100kts
09-Feb-20 11:07 33.807365 -117.786605 211 2780ft 81kts
09-Feb-20 11:08 33.788232 -117.798584 206 2144ft 77kts
09-Feb-20 11:09 33.769135 -117.810203 205 1985ft 75kts
09-Feb-20 11:10 33.750375 -117.821850 205 1417ft 74kts
09-Feb-20 11:11 33.732177 -117.833671 208 1163ft 73kts
09-Feb-20 11:12 33.714054 -117.845233 204 710ft 74kts
09-Feb-20 11:13 33.695786 -117.856101 207 388ft 72kts
09-Feb-20 11:14 33.678191 -117.867269 207 59ft 60kts
09-Feb-20 11:15 33.675795 -117.869932 298 59ft 0kts

Navigation Log

Ident Type
Flight plan parsing failed, navigation log unavailable